Time;durP1;ratioP1;P1;durP2;ratioP2;P2;SDS_P1;SDS_P2;PMS_P1;PMS_P2;Temp;Humidity;BMP_temperature;BMP_pressure;BME280_temperature;BME280_humidity;BME280_pressure;Samples;Min_cycle;Max_cycle;Signal;HPM_P1;HPM_P2
2023/12/18 00:00:47;;;;;;;0.60;0.60;;;;;;;6.24;100.00;99270.59;5114687;28;20091;-63
2023/12/18 00:03:13;;;;;;;0.98;0.93;;;;;;;6.49;100.00;99276.13;5117257;28;20105;-62
2023/12/18 00:05:40;;;;;;;1.45;1.00;;;;;;;6.07;100.00;99293.31;5114728;28;20055;-65
2023/12/18 00:08:08;;;;;;;0.88;0.88;;;;;;;6.31;100.00;99280.94;5117290;28;20051;-63
2023/12/18 00:10:34;;;;;;;2.20;1.00;;;;;;;6.29;100.00;99277.75;5114819;28;20136;-65
2023/12/18 00:13:01;;;;;;;0.70;0.70;;;;;;;6.27;100.00;99283.53;5117182;28;20097;-65
2023/12/18 00:15:28;;;;;;;2.78;1.02;;;;;;;6.37;100.00;99290.50;5114641;28;20086;-64
2023/12/18 00:17:54;;;;;;;1.48;1.20;;;;;;;6.23;100.00;99303.56;5117226;28;20382;-65
2023/12/18 00:20:20;;;;;;;0.90;0.90;;;;;;;6.36;100.00;99294.34;5114406;28;20143;-62
2023/12/18 00:22:46;;;;;;;3.15;1.38;;;;;;;6.31;100.00;99303.53;5115033;28;20082;-65
2023/12/18 00:25:13;;;;;;;1.02;0.90;;;;;;;6.29;100.00;99294.09;5116365;28;20142;-63
2023/12/18 00:27:39;;;;;;;0.90;0.90;;;;;;;6.56;100.00;99311.78;5114446;28;20060;-65
2023/12/18 00:30:08;;;;;;;1.38;1.15;;;;;;;6.20;100.00;99318.69;5116744;28;20142;-65
2023/12/18 00:32:35;;;;;;;3.92;3.10;;;;;;;6.52;100.00;99303.50;5114775;28;20370;-64
2023/12/18 00:35:01;;;;;;;2.83;2.15;;;;;;;6.26;100.00;99309.16;5116760;28;20067;-62
2023/12/18 00:37:27;;;;;;;1.70;1.60;;;;;;;6.18;100.00;99296.41;5114536;28;20134;-66
2023/12/18 00:39:53;;;;;;;5.13;1.48;;;;;;;6.33;100.00;99287.66;5116700;28;20087;-63
2023/12/18 00:42:20;;;;;;;0.95;0.90;;;;;;;6.39;100.00;99290.97;5114429;28;20442;-64
2023/12/18 00:44:46;;;;;;;1.75;1.20;;;;;;;6.51;100.00;99299.19;5116691;28;20138;-64
2023/12/18 00:47:13;;;;;;;1.10;1.10;;;;;;;6.58;100.00;99321.22;5114189;28;20070;-62
2023/12/18 00:49:39;;;;;;;1.55;1.45;;;;;;;6.02;100.00;99301.66;5116254;28;20097;-66
2023/12/18 00:52:06;;;;;;;1.95;1.30;;;;;;;5.84;100.00;99283.84;5114917;28;20466;-62
2023/12/18 00:54:32;;;;;;;3.85;1.52;;;;;;;6.24;100.00;99273.31;5097450;28;20440;-64
2023/12/18 00:56:58;;;;;;;1.23;1.13;;;;;;;6.16;100.00;99246.16;5116329;28;20051;-65
2023/12/18 00:59:25;;;;;;;1.85;1.38;;;;;;;6.41;100.00;99241.63;5113988;28;20488;-63
2023/12/18 01:01:51;;;;;;;0.90;0.90;;;;;;;6.33;100.00;99257.72;5116273;28;20116;-65
2023/12/18 01:04:18;;;;;;;1.20;1.10;;;;;;;6.15;100.00;99250.81;5114021;28;20051;-62
2023/12/18 01:06:44;;;;;;;1.00;0.90;;;;;;;6.42;100.00;99262.25;5116501;28;20109;-65
2023/12/18 01:09:12;;;;;;;0.93;0.93;;;;;;;6.36;100.00;99261.66;5113887;28;20066;-64
2023/12/18 01:11:38;;;;;;;1.10;1.10;;;;;;;6.26;100.00;99262.09;5116566;28;20330;-64
2023/12/18 01:14:05;;;;;;;1.55;1.00;;;;;;;6.36;100.00;99273.38;5113895;28;20389;-63
2023/12/18 01:16:31;;;;;;;0.80;0.80;;;;;;;6.41;100.00;99296.09;5116533;28;20083;-64
2023/12/18 01:18:57;;;;;;;1.00;1.00;;;;;;;6.18;100.00;99296.41;5113722;28;20083;-65
2023/12/18 01:21:24;;;;;;;1.10;1.10;;;;;;;6.46;100.00;99282.25;5113740;28;20413;-63
2023/12/18 01:23:51;;;;;;;1.13;0.90;;;;;;;6.44;100.00;99295.41;5116070;28;20090;-65
2023/12/18 01:26:17;;;;;;;1.42;1.17;;;;;;;6.47;100.00;99294.75;5113977;28;20315;-63
2023/12/18 01:28:43;;;;;;;0.90;0.90;;;;;;;6.42;100.00;99273.16;5116042;28;20087;-65
2023/12/18 01:31:20;;;;;;;0.85;0.85;;;;;;;6.29;100.00;99272.31;5114726;28;20436;-65
2023/12/18 01:33:46;;;;;;;1.30;0.90;;;;;;;6.53;100.00;99271.59;5119626;28;20083;-64
2023/12/18 01:36:13;;;;;;;1.10;1.00;;;;;;;5.76;100.00;99274.59;5117084;28;20443;-65
2023/12/18 01:38:40;;;;;;;1.08;1.05;;;;;;;6.15;100.00;99244.56;5119353;28;20067;-63
2023/12/18 01:41:06;;;;;;;0.80;0.80;;;;;;;6.32;100.00;99236.25;5117044;28;20356;-65
2023/12/18 01:43:32;;;;;;;1.10;0.90;;;;;;;6.50;100.00;99247.78;5119600;28;20055;-62
2023/12/18 01:46:00;;;;;;;1.00;0.93;;;;;;;6.58;100.00;99263.25;5117006;28;20047;-65
2023/12/18 01:48:28;;;;;;;0.82;0.80;;;;;;;6.44;100.00;99265.47;5117200;28;20403;-65
2023/12/18 01:50:55;;;;;;;1.35;1.25;;;;;;;6.68;100.00;99257.38;5119057;28;20108;-65
2023/12/18 01:53:23;;;;;;;1.60;1.00;;;;;;;6.31;100.00;99289.13;5117072;28;20093;-65
2023/12/18 01:55:51;;;;;;;0.90;0.90;;;;;;;5.99;100.00;99285.19;5119292;28;20110;-66
2023/12/18 01:58:17;;;;;;;0.80;0.80;;;;;;;6.42;100.00;99251.38;5116925;28;20155;-64
2023/12/18 02:00:45;;;;;;;0.70;0.70;;;;;;;6.50;100.00;99272.31;5119245;28;20086;-62
2023/12/18 02:03:12;;;;;;;1.15;1.02;;;;;;;6.22;100.00;99281.00;5116621;28;20094;-66
2023/12/18 02:05:40;;;;;;;1.58;1.48;;;;;;;6.62;100.00;99272.31;5119335;28;20298;-66
2023/12/18 02:08:07;;;;;;;1.52;1.42;;;;;;;6.51;100.00;99269.22;5116595;28;20188;-64
2023/12/18 02:10:34;;;;;;;1.33;1.23;;;;;;;6.52;100.00;99287.16;5119250;28;20055;-64
2023/12/18 02:13:01;;;;;;;2.15;1.27;;;;;;;6.40;100.00;99291.75;5116468;28;20047;-62
2023/12/18 02:15:27;;;;;;;1.30;1.20;;;;;;;6.32;100.00;99299.66;5116768;28;20129;-65
2023/12/18 02:17:54;;;;;;;2.35;1.30;;;;;;;6.57;100.00;99297.06;5118844;28;20055;-64
2023/12/18 02:20:20;;;;;;;1.30;1.20;;;;;;;6.65;100.00;99311.72;5116319;28;20055;-63
2023/12/18 02:22:51;;;;;;;1.60;1.50;;;;;;;6.56;100.00;99322.69;5118901;28;20083;-65
2023/12/18 02:25:18;;;;;;;2.22;2.03;;;;;;;6.47;100.00;99336.41;5116482;28;20060;-64
2023/12/18 02:27:46;;;;;;;1.45;1.30;;;;;;;6.40;100.00;99340.75;5118731;28;20481;-65
2023/12/18 02:30:14;;;;;;;3.40;1.40;;;;;;;6.24;100.00;99329.69;5116379;28;20118;-65
2023/12/18 02:32:41;;;;;;;1.20;1.20;;;;;;;6.41;100.00;99328.75;5118885;28;20083;-63
2023/12/18 02:35:08;;;;;;;1.30;1.25;;;;;;;6.50;100.00;99330.28;5116246;28;20147;-65
2023/12/18 02:37:34;;;;;;;1.23;1.10;;;;;;;6.62;100.00;99339.63;5118874;28;20086;-62
2023/12/18 02:40:01;;;;;;;1.55;1.45;;;;;;;6.60;100.00;99351.66;5116011;28;20496;-64
2023/12/18 02:42:28;;;;;;;4.18;1.50;;;;;;;6.54;100.00;99353.00;5115182;28;20056;-66
2023/12/18 02:44:54;;;;;;;1.27;1.10;;;;;;;6.64;100.00;99357.25;5118443;28;20413;-62
2023/12/18 02:47:20;;;;;;;1.20;1.10;;;;;;;6.56;100.00;99363.53;5116200;28;20106;-64
2023/12/18 02:49:47;;;;;;;1.30;1.20;;;;;;;6.49;100.00;99361.34;5118266;28;20138;-65
2023/12/18 02:52:13;;;;;;;1.50;1.40;;;;;;;6.51;100.00;99364.56;5115868;28;20090;-63
2023/12/18 02:54:39;;;;;;;1.35;0.98;;;;;;;6.40;100.00;99374.25;5118502;28;20476;-65
2023/12/18 02:57:06;;;;;;;1.40;1.30;;;;;;;6.55;100.00;99364.69;5115795;28;20047;-63
2023/12/18 02:59:33;;;;;;;2.25;1.30;;;;;;;6.53;100.00;99365.03;5118319;28;20069;-66
2023/12/18 03:01:59;;;;;;;0.90;0.90;;;;;;;6.55;100.00;99376.38;5115820;28;20138;-62
2023/12/18 03:04:25;;;;;;;2.50;1.48;;;;;;;6.24;100.00;99376.78;5118332;28;20083;-64
2023/12/18 03:06:52;;;;;;;1.50;1.40;;;;;;;6.36;100.00;99365.13;5115704;28;20091;-64
2023/12/18 03:09:18;;;;;;;2.55;1.50;;;;;;;6.36;100.00;99368.69;5114489;28;20187;-62
2023/12/18 03:11:44;;;;;;;1.73;1.60;;;;;;;6.31;100.00;99359.91;5117299;28;20093;-65
2023/12/18 03:14:11;;;;;;;5.43;2.88;;;;;;;6.38;100.00;99353.94;5115511;28;20150;-65
2023/12/18 03:16:38;;;;;;;3.22;2.40;;;;;;;6.49;100.00;99376.91;5117820;28;20059;-65
2023/12/18 03:19:05;;;;;;;7.93;4.90;;;;;;;6.37;100.00;99374.94;5115384;28;20062;-62
2023/12/18 03:21:31;;;;;;;5.10;3.33;;;;;;;6.42;100.00;99382.09;5117751;28;20094;-64
2023/12/18 03:23:57;;;;;;;5.65;2.13;;;;;;;6.33;100.00;99390.31;5115605;28;20392;-65
2023/12/18 03:26:24;;;;;;;1.92;1.70;;;;;;;6.40;100.00;99374.25;5117971;28;20079;-64
2023/12/18 03:28:50;;;;;;;1.73;1.63;;;;;;;6.52;100.00;99379.75;5115486;28;20051;-63
2023/12/18 03:31:17;;;;;;;3.88;1.90;;;;;;;6.49;100.00;99388.59;5117847;28;20435;-63
2023/12/18 03:33:44;;;;;;;1.60;1.50;;;;;;;6.26;100.00;99387.31;5115203;28;20093;-64
2023/12/18 03:36:10;;;;;;;1.50;1.40;;;;;;;6.30;100.00;99374.66;5117676;28;20051;-63
2023/12/18 03:38:36;;;;;;;2.13;1.88;;;;;;;6.53;100.00;99386.00;5115599;28;20048;-66
2023/12/18 03:41:03;;;;;;;2.85;1.85;;;;;;;6.22;100.00;99389.91;5115074;28;20143;-62
2023/12/18 03:43:29;;;;;;;3.03;2.00;;;;;;;6.36;100.00;99374.13;5117461;28;20059;-62
2023/12/18 03:45:55;;;;;;;2.38;1.80;;;;;;;6.07;100.00;99383.13;5115079;28;20138;-65
2023/12/18 03:48:22;;;;;;;3.40;1.92;;;;;;;6.30;100.00;99355.59;5117528;28;20146;-62
2023/12/18 03:50:49;;;;;;;2.85;1.92;;;;;;;6.46;100.00;99353.06;5114985;28;20095;-65
2023/12/18 03:53:15;;;;;;;1.58;1.48;;;;;;;6.56;100.00;99374.44;5117425;28;20082;-62
2023/12/18 03:55:41;;;;;;;3.58;2.55;;;;;;;6.40;100.00;99378.88;5114707;28;20413;-63
2023/12/18 03:58:07;;;;;;;3.40;2.05;;;;;;;6.23;100.00;99382.53;5117539;28;20088;-64
2023/12/18 04:00:34;;;;;;;1.95;1.75;;;;;;;6.32;100.00;99375.91;5114793;28;20138;-63
2023/12/18 04:03:03;;;;;;;2.22;1.90;;;;;;;6.46;100.00;99367.47;5117202;28;20056;-63
2023/12/18 04:05:30;;;;;;;4.47;2.17;;;;;;;6.52;100.00;99382.47;5114747;28;20092;-62
2023/12/18 04:07:56;;;;;;;1.95;1.85;;;;;;;6.60;100.00;99389.00;5114734;28;20047;-63
2023/12/18 04:10:23;;;;;;;2.05;1.83;;;;;;;6.44;100.00;99394.25;5116876;28;20055;-65
2023/12/18 04:12:49;;;;;;;2.65;1.80;;;;;;;6.46;100.00;99394.69;5114826;28;20083;-62
2023/12/18 04:15:15;;;;;;;2.63;1.83;;;;;;;6.35;100.00;99393.50;5116968;28;20373;-63
2023/12/18 04:17:41;;;;;;;2.28;1.88;;;;;;;6.42;100.00;99388.34;5114760;28;20052;-63
2023/12/18 04:20:09;;;;;;;2.65;2.00;;;;;;;6.46;100.00;99396.63;5117011;28;20142;-63
2023/12/18 04:22:36;;;;;;;2.58;2.00;;;;;;;6.52;100.00;99398.81;5114452;28;20097;-64
2023/12/18 04:25:02;;;;;;;3.60;1.90;;;;;;;6.46;100.00;99408.31;5116914;28;20495;-63
2023/12/18 04:27:28;;;;;;;2.00;1.85;;;;;;;6.49;100.00;99418.56;5114380;28;20315;-65
2023/12/18 04:29:55;;;;;;;3.67;2.47;;;;;;;6.46;100.00;99415.69;5116979;28;20087;-63
2023/12/18 04:32:21;;;;;;;2.95;2.17;;;;;;;6.43;100.00;99410.91;5114419;28;20055;-63
2023/12/18 04:34:47;;;;;;;2.63;1.80;;;;;;;6.17;100.00;99400.22;5115739;28;20094;-65
2023/12/18 04:37:13;;;;;;;2.17;1.98;;;;;;;5.87;100.00;99398.25;5115467;28;20105;-63
2023/12/18 04:39:40;;;;;;;2.10;2.00;;;;;;;6.10;100.00;99376.22;5114391;28;20083;-65
2023/12/18 04:42:07;;;;;;;5.07;2.55;;;;;;;6.17;100.00;99375.72;5116704;28;20062;-62
2023/12/18 04:44:33;;;;;;;3.05;2.33;;;;;;;6.13;100.00;99373.66;5114406;28;20094;-64
2023/12/18 04:47:01;;;;;;;5.82;3.85;;;;;;;6.31;100.00;99384.41;5116389;28;20139;-63
2023/12/18 04:49:27;;;;;;;2.53;2.33;;;;;;;5.96;100.00;99383.81;5113917;28;20059;-63
2023/12/18 04:51:53;;;;;;;3.90;2.85;;;;;;;6.38;100.00;99375.72;5116147;28;20062;-62
2023/12/18 04:54:20;;;;;;;3.22;2.50;;;;;;;6.41;100.00;99383.22;5113783;28;20139;-65
2023/12/18 04:56:47;;;;;;;8.23;2.97;;;;;;;6.42;100.00;99398.44;5116412;28;20078;-65
2023/12/18 04:59:14;;;;;;;4.53;2.58;;;;;;;6.51;100.00;99401.91;5113871;28;20053;-64
2023/12/18 05:01:40;;;;;;;3.42;2.25;;;;;;;6.46;100.00;99393.91;5116407;28;20048;-62
2023/12/18 05:04:07;;;;;;;5.32;3.17;;;;;;;6.52;100.00;99395.31;5114046;28;20479;-62
2023/12/18 05:06:33;;;;;;;4.55;2.60;;;;;;;6.29;100.00;99406.50;5115238;28;20091;-64
2023/12/18 05:09:00;;;;;;;7.43;2.97;;;;;;;6.23;100.00;99407.84;5119547;28;20055;-66
2023/12/18 05:11:26;;;;;;;3.90;2.95;;;;;;;6.45;100.00;99406.72;5117452;28;20052;-64
2023/12/18 05:13:53;;;;;;;7.45;4.10;;;;;;;6.38;100.00;99397.50;5119849;28;20059;-63
2023/12/18 05:16:19;;;;;;;3.72;3.00;;;;;;;6.55;100.00;99411.78;5117473;28;20109;-65
2023/12/18 05:18:46;;;;;;;5.03;3.67;;;;;;;6.41;100.00;99403.09;5119669;28;20058;-63
2023/12/18 05:21:12;;;;;;;4.30;3.10;;;;;;;6.33;100.00;99398.47;5117281;28;20090;-64
2023/12/18 05:23:39;;;;;;;5.90;4.07;;;;;;;6.41;100.00;99386.75;5119743;28;20097;-64
2023/12/18 05:26:05;;;;;;;2.92;2.45;;;;;;;6.35;100.00;99391.59;5116989;28;20048;-64
2023/12/18 05:28:32;;;;;;;3.53;2.72;;;;;;;6.45;100.00;99406.72;5119517;28;20051;-63
2023/12/18 05:30:59;;;;;;;4.40;2.53;;;;;;;6.17;100.00;99408.38;5116862;28;20087;-64
2023/12/18 05:33:25;;;;;;;3.35;2.17;;;;;;;6.38;100.00;99409.19;5117212;28;20116;-65
2023/12/18 05:35:52;;;;;;;4.18;2.50;;;;;;;6.47;100.00;99412.66;5102407;28;20062;-64
2023/12/18 05:38:18;;;;;;;4.40;2.88;;;;;;;6.44;100.00;99412.53;5116756;28;20078;-62
2023/12/18 05:40:44;;;;;;;3.35;2.60;;;;;;;6.45;100.00;99423.06;5118913;28;20109;-63
2023/12/18 05:43:11;;;;;;;3.97;3.42;;;;;;;6.38;100.00;99422.81;5116663;28;20051;-64
2023/12/18 05:45:37;;;;;;;3.67;3.28;;;;;;;6.42;100.00;99428.38;5119185;28;20056;-62
2023/12/18 05:48:05;;;;;;;4.60;2.92;;;;;;;6.35;100.00;99429.69;5116762;28;20128;-63
2023/12/18 05:50:33;;;;;;;2.60;1.75;;;;;;;6.05;100.00;99431.63;5118955;28;20063;-64
2023/12/18 05:52:59;;;;;;;5.55;1.90;;;;;;;6.17;100.00;99422.00;5116668;28;20059;-63
2023/12/18 05:55:25;;;;;;;3.67;2.10;;;;;;;6.15;100.00;99421.50;5119268;28;20079;-64
2023/12/18 05:57:52;;;;;;;2.40;2.00;;;;;;;6.33;100.00;99409.38;5116520;28;20322;-62
2023/12/18 06:00:19;;;;;;;2.70;2.28;;;;;;;6.15;100.00;99414.13;5117901;28;20116;-64
2023/12/18 06:02:45;;;;;;;2.90;2.17;;;;;;;6.13;100.00;99411.75;5117976;28;20055;-63
2023/12/18 06:05:12;;;;;;;5.13;2.00;;;;;;;6.11;100.00;99405.81;5116371;28;20103;-68
2023/12/18 06:07:39;;;;;;;2.70;2.50;;;;;;;6.15;100.00;99405.97;5118730;28;20138;-65
2023/12/18 06:10:06;;;;;;;2.08;1.88;;;;;;;6.04;100.00;99400.09;5116252;28;20060;-64
2023/12/18 06:12:33;;;;;;;4.93;2.13;;;;;;;5.83;100.00;99389.16;5118597;28;20424;-66
2023/12/18 06:14:59;;;;;;;3.67;2.67;;;;;;;5.60;100.00;99379.66;5116252;28;20090;-63
2023/12/18 06:17:25;;;;;;;4.70;2.35;;;;;;;6.11;100.00;99375.88;5118434;28;20052;-66
2023/12/18 06:19:52;;;;;;;2.63;2.33;;;;;;;6.09;100.00;99375.41;5116102;28;20098;-62
2023/12/18 06:22:19;;;;;;;3.65;2.70;;;;;;;6.20;100.00;99381.28;5118548;28;20113;-62
2023/12/18 06:24:46;;;;;;;2.38;2.17;;;;;;;6.19;100.00;99400.66;5115973;28;20421;-62
2023/12/18 06:27:12;;;;;;;3.33;2.38;;;;;;;6.20;100.00;99421.31;5118548;28;20063;-65
2023/12/18 06:29:38;;;;;;;2.38;2.17;;;;;;;6.17;100.00;99416.53;5116461;28;20052;-66
2023/12/18 06:32:05;;;;;;;3.47;2.67;;;;;;;6.20;100.00;99413.97;5116202;28;20087;-62
2023/12/18 06:34:33;;;;;;;5.78;3.55;;;;;;;6.26;100.00;99414.53;5118358;28;20098;-66
2023/12/18 06:36:59;;;;;;;2.60;2.40;;;;;;;6.32;100.00;99424.13;5115815;28;20148;-65
2023/12/18 06:39:26;;;;;;;3.08;1.70;;;;;;;5.96;100.00;99440.97;5118204;28;20055;-63
2023/12/18 06:41:52;;;;;;;2.30;1.77;;;;;;;6.04;100.00;99440.94;5115906;28;20318;-65
2023/12/18 06:44:19;;;;;;;3.42;1.63;;;;;;;5.85;100.00;99426.91;5118092;28;20150;-63
2023/12/18 06:46:45;;;;;;;3.05;2.75;;;;;;;6.22;100.00;99421.78;5115659;28;20094;-65
2023/12/18 06:49:11;;;;;;;2.47;1.90;;;;;;;6.28;100.00;99415.81;5118179;28;20383;-63
2023/12/18 06:51:38;;;;;;;5.07;3.72;;;;;;;6.28;100.00;99447.69;5115377;28;20102;-63
2023/12/18 06:54:04;;;;;;;11.25;6.00;;;;;;;6.24;100.00;99463.91;5117984;28;20091;-64
2023/12/18 06:56:32;;;;;;;3.20;2.53;;;;;;;6.37;100.00;99467.50;5115317;28;20047;-64
2023/12/18 06:58:58;;;;;;;6.75;3.25;;;;;;;6.36;100.00;99480.34;5115558;28;20091;-64
2023/12/18 07:01:25;;;;;;;3.78;2.40;;;;;;;6.26;100.00;99483.41;5117524;28;20066;-63
2023/12/18 07:03:51;;;;;;;4.28;3.58;;;;;;;6.25;100.00;99481.03;5115716;28;20416;-62
2023/12/18 07:06:17;;;;;;;4.43;3.45;;;;;;;6.32;100.00;99486.75;5117853;28;20062;-64
2023/12/18 07:08:44;;;;;;;4.05;2.70;;;;;;;6.25;100.00;99489.97;5115265;28;20083;-64
2023/12/18 07:11:10;;;;;;;6.22;3.95;;;;;;;6.30;100.00;99502.63;5117600;28;20459;-61
2023/12/18 07:13:37;;;;;;;6.50;3.22;;;;;;;6.39;100.00;99500.63;5115099;28;20083;-66
2023/12/18 07:16:05;;;;;;;3.58;2.42;;;;;;;6.48;100.00;99508.78;5117595;28;20047;-63
2023/12/18 07:18:31;;;;;;;8.38;4.30;;;;;;;6.47;100.00;99518.88;5114890;28;20097;-63
2023/12/18 07:20:57;;;;;;;5.65;3.67;;;;;;;6.45;100.00;99512.16;5117585;28;20138;-67
2023/12/18 07:23:24;;;;;;;5.65;2.92;;;;;;;6.30;100.00;99506.16;5114981;28;20051;-67
2023/12/18 07:25:50;;;;;;;4.03;2.17;;;;;;;6.28;100.00;99500.22;5116453;28;20051;-66
2023/12/18 07:28:16;;;;;;;5.40;2.42;;;;;;;6.33;100.00;99500.06;5115992;28;20047;-66
2023/12/18 07:30:44;;;;;;;7.88;2.70;;;;;;;6.22;100.00;99500.72;5114705;28;20048;-66
2023/12/18 07:33:11;;;;;;;3.15;2.13;;;;;;;6.53;100.00;99498.50;5117372;28;20060;-67
2023/12/18 07:35:37;;;;;;;3.90;2.67;;;;;;;6.55;100.00;99517.22;5114910;28;20120;-69
2023/12/18 07:38:03;;;;;;;5.68;3.10;;;;;;;6.42;100.00;99520.97;5117286;28;20052;-64
2023/12/18 07:40:30;;;;;;;2.47;2.28;;;;;;;6.47;100.00;99513.44;5114663;28;20128;-67
2023/12/18 07:42:56;;;;;;;3.75;1.85;;;;;;;6.45;100.00;99510.22;5117212;28;20188;-70
2023/12/18 07:45:24;;;;;;;4.25;2.63;;;;;;;6.28;100.00;99516.56;5114758;28;20322;-68
2023/12/18 07:47:51;;;;;;;10.05;2.83;;;;;;;5.80;100.00;99503.28;5117485;28;20384;-66
2023/12/18 07:50:17;;;;;;;2.67;1.98;;;;;;;6.29;100.00;99501.00;5114710;28;20108;-66
2023/12/18 07:52:44;;;;;;;3.92;2.22;;;;;;;6.26;100.00;99505.19;5117286;28;20062;-65
2023/12/18 07:55:10;;;;;;;2.00;1.80;;;;;;;6.58;100.00;99501.00;5115265;28;20055;-65
2023/12/18 07:57:36;;;;;;;2.72;2.08;;;;;;;6.64;100.00;99519.91;5114745;28;20087;-63
2023/12/18 08:00:03;;;;;;;7.15;2.72;;;;;;;6.75;100.00;99526.56;5116610;28;20117;-66
2023/12/18 08:02:29;;;;;;;9.80;2.42;;;;;;;6.55;100.00;99537.09;5114631;28;20048;-64
2023/12/18 08:04:56;;;;;;;2.70;1.98;;;;;;;6.09;100.00;99524.31;5116843;28;20060;-69
2023/12/18 08:07:23;;;;;;;4.75;2.63;;;;;;;6.55;100.00;99504.41;5114578;28;20055;-63
2023/12/18 08:09:50;;;;;;;5.85;3.28;;;;;;;6.78;100.00;99523.19;5116795;28;20070;-66
2023/12/18 08:12:16;;;;;;;3.50;2.30;;;;;;;6.82;100.00;99530.34;5114309;28;20052;-66
2023/12/18 08:14:43;;;;;;;2.72;2.50;;;;;;;6.72;100.00;99535.41;5116742;28;20112;-68
2023/12/18 08:17:12;;;;;;;6.03;3.78;;;;;;;6.98;100.00;99537.94;5113858;28;20047;-70
2023/12/18 08:19:38;;;;;;;2.97;1.80;;;;;;;6.88;100.00;99532.91;5116214;28;20374;-67
2023/12/18 08:22:05;;;;;;;5.65;3.60;;;;;;;7.10;100.00;99537.22;5114172;28;20091;-63
2023/12/18 08:24:32;;;;;;;8.95;2.35;;;;;;;7.25;100.00;99529.25;5114070;28;20056;-65
2023/12/18 08:26:58;;;;;;;3.17;2.47;;;;;;;7.35;100.00;99547.13;5116148;28;20059;-66
2023/12/18 08:29:25;;;;;;;5.38;3.38;;;;;;;7.36;100.00;99535.06;5114069;28;20052;-66
2023/12/18 08:31:51;;;;;;;6.40;3.13;;;;;;;7.43;100.00;99542.72;5116193;28;20205;-68
2023/12/18 08:34:18;;;;;;;4.43;2.42;;;;;;;7.22;100.00;99531.84;5114001;28;20055;-64
2023/12/18 08:36:44;;;;;;;4.32;1.95;;;;;;;7.14;100.00;99532.72;5116398;28;20059;-62
2023/12/18 08:39:11;;;;;;;2.35;1.67;;;;;;;7.37;100.00;99528.50;5114075;28;20333;-65
2023/12/18 08:41:38;;;;;;;2.92;2.00;;;;;;;7.17;100.00;99527.38;5118103;28;20367;-64
2023/12/18 08:44:05;;;;;;;7.75;2.03;;;;;;;7.43;100.00;99529.09;5117528;28;20051;-67
2023/12/18 08:46:31;;;;;;;4.90;2.88;;;;;;;7.25;100.00;99515.59;5120254;28;20109;-63
2023/12/18 08:48:57;;;;;;;2.45;2.20;;;;;;;6.95;100.00;99533.16;5117376;28;20052;-64
2023/12/18 08:51:24;;;;;;;3.47;2.25;;;;;;;7.08;100.00;99535.63;5115837;28;20414;-65
2023/12/18 08:53:50;;;;;;;3.03;2.55;;;;;;;7.03;100.00;99530.38;5118904;28;20378;-64
2023/12/18 08:56:17;;;;;;;1.42;1.33;;;;;;;7.11;100.00;99525.19;5117373;28;20144;-67
2023/12/18 08:58:43;;;;;;;1.48;1.38;;;;;;;6.46;100.00;99524.63;5119934;28;20070;-66
2023/12/18 09:01:10;;;;;;;3.08;1.80;;;;;;;6.95;100.00;99523.06;5117347;28;20090;-65
2023/12/18 09:03:36;;;;;;;1.77;1.55;;;;;;;7.10;100.00;99529.84;5119850;28;20412;-63
2023/12/18 09:06:02;;;;;;;2.78;1.65;;;;;;;7.07;100.00;99530.53;5117239;28;20086;-64
2023/12/18 09:08:31;;;;;;;3.00;2.22;;;;;;;7.09;100.00;99530.97;5119628;28;20138;-62
2023/12/18 09:10:57;;;;;;;3.10;2.30;;;;;;;6.94;100.00;99534.31;5117268;28;20056;-61
2023/12/18 09:13:24;;;;;;;3.67;2.33;;;;;;;6.97;100.00;99536.38;5119772;28;20048;-66
2023/12/18 09:15:51;;;;;;;4.45;1.92;;;;;;;7.09;100.00;99533.69;5117233;28;20134;-64
2023/12/18 09:18:17;;;;;;;2.13;2.00;;;;;;;6.71;100.00;99537.31;5119475;28;20051;-63
2023/12/18 09:20:43;;;;;;;3.08;2.05;;;;;;;6.95;100.00;99549.50;5117905;28;20090;-65
2023/12/18 09:23:10;;;;;;;4.28;2.13;;;;;;;6.84;100.00;99546.38;5100276;28;20098;-65
2023/12/18 09:25:36;;;;;;;3.25;1.75;;;;;;;6.79;100.00;99552.81;5119264;28;20059;-65
2023/12/18 09:28:03;;;;;;;4.53;2.10;;;;;;;7.06;100.00;99554.25;5117027;28;20060;-64
2023/12/18 09:30:30;;;;;;;4.10;2.97;;;;;;;6.77;100.00;99546.91;5119069;28;20086;-65
2023/12/18 09:32:56;;;;;;;3.20;2.78;;;;;;;7.15;100.00;99550.66;5116950;28;20067;-64
2023/12/18 09:35:22;;;;;;;6.00;2.67;;;;;;;7.29;100.00;99543.78;5119302;28;20079;-66
2023/12/18 09:37:49;;;;;;;3.42;2.05;;;;;;;7.33;100.00;99535.78;5117071;28;20356;-64
2023/12/18 09:40:15;;;;;;;3.13;2.10;;;;;;;7.41;100.00;99540.34;5119533;28;20392;-65
2023/12/18 09:42:41;;;;;;;3.03;2.03;;;;;;;7.37;100.00;99533.97;5117043;28;20055;-65
2023/12/18 09:45:09;;;;;;;7.38;2.83;;;;;;;7.30;100.00;99506.44;5119328;28;20051;-65
2023/12/18 09:47:36;;;;;;;2.40;1.35;;;;;;;7.43;100.00;99512.72;5116598;28;20047;-65
2023/12/18 09:50:04;;;;;;;3.88;2.90;;;;;;;7.18;100.00;99528.97;5116445;28;20102;-64
2023/12/18 09:52:35;;;;;;;3.30;2.28;;;;;;;7.34;100.00;99536.56;5118311;28;20113;-63
2023/12/18 09:55:04;;;;;;;2.47;2.05;;;;;;;7.01;100.00;99532.63;5116613;28;20184;-65
2023/12/18 09:57:32;;;;;;;3.25;2.10;;;;;;;7.25;100.00;99544.81;5118698;28;20047;-64
2023/12/18 09:59:58;;;;;;;4.03;1.80;;;;;;;7.36;100.00;99529.63;5116466;28;20371;-65
2023/12/18 10:02:25;;;;;;;3.38;2.20;;;;;;;7.28;100.00;99514.94;5118439;28;20094;-63
2023/12/18 10:04:53;;;;;;;3.88;2.20;;;;;;;7.24;100.00;99515.94;5116372;28;20047;-65
2023/12/18 10:07:19;;;;;;;4.40;2.40;;;;;;;7.24;100.00;99511.28;5118829;28;20052;-63
2023/12/18 10:09:48;;;;;;;3.40;2.60;;;;;;;7.31;100.00;99513.47;5116238;28;20051;-64
2023/12/18 10:12:17;;;;;;;4.40;2.13;;;;;;;7.34;100.00;99512.81;5118949;28;20142;-64
2023/12/18 10:14:43;;;;;;;1.67;1.58;;;;;;;7.26;100.00;99503.59;5118175;28;20069;-64
2023/12/18 10:17:10;;;;;;;2.70;1.63;;;;;;;7.27;100.00;99504.38;5116417;28;20079;-63
2023/12/18 10:19:36;;;;;;;6.68;2.38;;;;;;;7.45;100.00;99500.34;5118273;28;20082;-64
2023/12/18 10:22:05;;;;;;;4.97;2.00;;;;;;;7.24;100.00;99485.94;5116262;28;20067;-63
2023/12/18 10:24:31;;;;;;;4.30;2.22;;;;;;;7.29;100.00;99510.28;5118662;28;20055;-64
2023/12/18 10:26:57;;;;;;;2.08;1.88;;;;;;;7.08;100.00;99500.19;5115977;28;20390;-66
2023/12/18 10:29:24;;;;;;;3.42;2.10;;;;;;;7.22;100.00;99524.44;5118409;28;20455;-64
2023/12/18 10:31:50;;;;;;;6.93;2.28;;;;;;;7.25;100.00;99531.16;5115978;28;20459;-64
2023/12/18 10:34:17;;;;;;;4.82;1.98;;;;;;;7.18;100.00;99530.91;5118395;28;20390;-65
2023/12/18 10:36:46;;;;;;;2.38;2.03;;;;;;;7.22;100.00;99532.63;5115810;28;20047;-64
2023/12/18 10:39:15;;;;;;;2.22;1.70;;;;;;;7.25;100.00;99542.06;5118436;28;20071;-64
2023/12/18 10:41:45;;;;;;;3.08;2.38;;;;;;;7.10;100.00;99545.41;5117684;28;20078;-62
2023/12/18 10:44:14;;;;;;;12.52;5.53;;;;;;;7.23;100.00;99531.50;5098663;28;20052;-65
2023/12/18 10:46:42;;;;;;;11.98;6.07;;;;;;;7.36;100.00;99537.81;5117833;28;20123;-61
2023/12/18 10:49:09;;;;;;;6.18;3.75;;;;;;;7.25;100.00;99529.25;5115588;28;20098;-63
2023/12/18 10:51:38;;;;;;;6.72;3.45;;;;;;;7.34;100.00;99523.72;5118188;28;20056;-62
2023/12/18 10:54:06;;;;;;;12.93;6.65;;;;;;;7.29;100.00;99518.47;5115616;28;20055;-64
2023/12/18 10:56:36;;;;;;;7.55;4.32;;;;;;;7.46;100.00;99522.97;5117936;28;20444;-64
2023/12/18 10:59:04;;;;;;;7.22;4.63;;;;;;;7.16;100.00;99514.88;5115464;28;20399;-65
2023/12/18 11:01:31;;;;;;;5.47;3.03;;;;;;;7.30;100.00;99522.81;5117696;28;20212;-65
2023/12/18 11:03:59;;;;;;;3.72;2.17;;;;;;;7.28;100.00;99527.78;5114143;28;20367;-63
2023/12/18 11:06:26;;;;;;;3.50;2.33;;;;;;;7.47;100.00;99519.91;5116861;28;20094;-65
2023/12/18 11:08:52;;;;;;;1.98;1.85;;;;;;;7.43;100.00;99512.72;5116890;28;20055;-65
2023/12/18 11:11:21;;;;;;;3.30;2.92;;;;;;;7.31;100.00;99525.19;5115155;28;20121;-66
2023/12/18 11:14:11;;;;;;;2.42;2.15;;;;;;;7.14;100.00;99541.69;5117497;28;20063;-62
2023/12/18 11:16:56;;;;;;;7.80;2.55;;;;;;;7.24;100.00;99548.69;5115274;28;20051;-63
2023/12/18 11:19:31;;;;;;;2.67;1.90;;;;;;;7.30;100.00;99548.13;5117840;28;20413;-65
2023/12/18 11:22:04;;;;;;;6.03;3.83;;;;;;;7.45;100.00;99552.16;5114887;28;20055;-62
2023/12/18 11:24:35;;;;;;;5.53;2.38;;;;;;;7.39;100.00;99550.78;5115151;28;20055;-65
2023/12/18 11:27:03;;;;;;;2.75;2.15;;;;;;;7.14;100.00;99560.78;5101104;28;20055;-66
2023/12/18 11:29:43;;;;;;;5.10;2.50;;;;;;;7.20;100.00;99564.91;5114943;28;20054;-66
2023/12/18 11:32:12;;;;;;;3.95;2.28;;;;;;;7.08;100.00;99567.53;5117236;28;20058;-66